Time;durP1;ratioP1;P1;durP2;ratioP2;P2;SDS_P1;SDS_P2;PMS_P1;PMS_P2;Temp;Humidity;BMP_temperature;BMP_pressure;BME280_temperature;BME280_humidity;BME280_pressure;Samples;Min_cycle;Max_cycle;Signal;HPM_P1;HPM_P2
2023/10/31 00:02:21;;;;;;;12.85;8.60;;;;;;;14.99;100.00;99323.81;5092341;28;20044;-46
2023/10/31 00:04:50;;;;;;;15.82;8.75;;;;;;;14.85;100.00;99309.81;5092694;28;20138;-44
2023/10/31 00:07:18;;;;;;;15.48;8.63;;;;;;;14.87;100.00;99305.16;5092399;28;20052;-45
2023/10/31 00:09:46;;;;;;;18.13;10.10;;;;;;;14.81;100.00;99307.56;5092204;28;20556;-45
2023/10/31 00:12:15;;;;;;;17.88;9.32;;;;;;;14.84;100.00;99305.44;5092293;28;20098;-45
2023/10/31 00:14:43;;;;;;;17.38;9.02;;;;;;;14.83;100.00;99301.03;5091055;28;20051;-45
2023/10/31 00:17:13;;;;;;;14.40;8.98;;;;;;;14.91;100.00;99304.88;5091997;28;20048;-45
2023/10/31 00:19:41;;;;;;;14.80;8.93;;;;;;;14.76;100.00;99310.66;5091904;28;20052;-44
2023/10/31 00:22:09;;;;;;;16.75;9.10;;;;;;;14.85;100.00;99308.94;5092096;28;20052;-45
2023/10/31 00:24:37;;;;;;;15.88;9.25;;;;;;;14.82;100.00;99307.41;5092426;28;20048;-47
2023/10/31 00:27:06;;;;;;;16.10;8.93;;;;;;;14.86;100.00;99306.16;5091918;28;20055;-45
2023/10/31 00:29:34;;;;;;;15.55;8.15;;;;;;;14.91;100.00;99299.50;5091896;28;20489;-44
2023/10/31 00:32:03;;;;;;;16.75;9.27;;;;;;;14.91;100.00;99299.50;5091779;28;20050;-45
2023/10/31 00:34:34;;;;;;;19.65;9.27;;;;;;;14.78;100.00;99286.38;5091849;28;20517;-46
2023/10/31 00:37:03;;;;;;;16.30;8.85;;;;;;;14.60;100.00;99279.03;5091882;28;20044;-45
2023/10/31 00:39:33;;;;;;;21.42;9.73;;;;;;;14.58;100.00;99270.28;5092028;28;20051;-45
2023/10/31 00:42:02;;;;;;;21.52;9.82;;;;;;;14.53;100.00;99277.03;5092112;28;20129;-47
2023/10/31 00:44:30;;;;;;;20.33;9.45;;;;;;;14.46;100.00;99273.22;5091893;28;20044;-45
2023/10/31 00:46:58;;;;;;;16.02;9.35;;;;;;;14.47;100.00;99274.91;5091873;28;20044;-46
2023/10/31 00:49:27;;;;;;;17.95;9.45;;;;;;;14.52;100.00;99276.19;5091493;28;20131;-45
2023/10/31 00:51:56;;;;;;;18.48;10.15;;;;;;;14.40;100.00;99268.41;5091455;28;20055;-46
2023/10/31 00:54:26;;;;;;;16.30;9.48;;;;;;;14.38;100.00;99267.66;5091642;28;20055;-45
2023/10/31 00:56:57;;;;;;;16.98;9.32;;;;;;;14.24;100.00;99259.06;5091201;28;20046;-44
2023/10/31 00:59:25;;;;;;;16.08;9.15;;;;;;;14.37;100.00;99247.19;5091537;28;20048;-45
2023/10/31 01:01:53;;;;;;;18.25;9.88;;;;;;;14.33;100.00;99239.44;5091445;28;20051;-45
2023/10/31 01:04:22;;;;;;;19.75;10.55;;;;;;;14.43;100.00;99243.97;5091203;28;20459;-45
2023/10/31 01:06:50;;;;;;;19.38;9.80;;;;;;;14.39;100.00;99238.06;5091307;28;20048;-45
2023/10/31 01:09:20;;;;;;;22.33;9.93;;;;;;;14.34;100.00;99232.25;5091211;28;20052;-46
2023/10/31 01:11:48;;;;;;;16.98;9.18;;;;;;;14.35;100.00;99238.44;5091009;28;20048;-46
2023/10/31 01:14:16;;;;;;;19.02;10.05;;;;;;;14.31;100.00;99225.34;5091251;28;20055;-47
2023/10/31 01:16:45;;;;;;;18.05;10.02;;;;;;;14.36;100.00;99221.38;5091290;28;20040;-46
2023/10/31 01:19:13;;;;;;;17.13;9.38;;;;;;;14.35;100.00;99220.53;5091100;28;20123;-47
2023/10/31 01:21:42;;;;;;;18.27;9.88;;;;;;;14.37;100.00;99223.06;5091112;28;20092;-44
2023/10/31 01:24:10;;;;;;;16.92;9.80;;;;;;;14.28;100.00;99209.53;5090989;28;20069;-45
2023/10/31 01:26:40;;;;;;;17.63;10.00;;;;;;;14.25;100.00;99204.44;5090870;28;20048;-46
2023/10/31 01:29:09;;;;;;;21.13;9.60;;;;;;;14.21;100.00;99203.03;5091304;28;20052;-45
2023/10/31 01:31:37;;;;;;;16.48;9.32;;;;;;;14.19;100.00;99204.16;5091216;28;20052;-44
2023/10/31 01:34:23;;;;;;;17.95;10.00;;;;;;;14.19;100.00;99205.00;5090968;28;20044;-45
2023/10/31 01:36:51;;;;;;;19.33;9.65;;;;;;;14.19;100.00;99194.28;5092179;28;20463;-46
2023/10/31 01:39:20;;;;;;;14.85;9.98;;;;;;;14.20;100.00;99190.59;5092373;28;20052;-45
2023/10/31 01:41:49;;;;;;;15.48;9.27;;;;;;;14.25;100.00;99188.34;5091882;28;20509;-46
2023/10/31 01:44:18;;;;;;;15.38;8.98;;;;;;;14.12;100.00;99187.78;5091568;28;20052;-45
2023/10/31 01:46:46;;;;;;;18.77;8.98;;;;;;;14.15;100.00;99187.50;5091209;28;20044;-45
2023/10/31 01:49:15;;;;;;;18.75;9.35;;;;;;;14.16;100.00;99180.28;5090690;28;20045;-45
2023/10/31 01:51:43;;;;;;;14.88;9.43;;;;;;;14.24;100.00;99186.66;5090696;28;20055;-45
2023/10/31 01:54:13;;;;;;;17.13;9.18;;;;;;;14.27;100.00;99178.31;5090940;28;20070;-45
2023/10/31 01:56:43;;;;;;;16.77;9.90;;;;;;;14.28;100.00;99177.34;5090981;28;20098;-46
2023/10/31 01:59:12;;;;;;;16.25;9.43;;;;;;;14.26;100.00;99181.97;5090745;28;20044;-45
2023/10/31 02:01:41;;;;;;;19.52;9.77;;;;;;;14.25;100.00;99176.75;5090592;28;20466;-45
2023/10/31 02:04:10;;;;;;;16.77;10.18;;;;;;;14.18;100.00;99176.47;5090748;28;20079;-46
2023/10/31 02:06:38;;;;;;;16.83;9.73;;;;;;;14.24;100.00;99172.38;5090806;28;20100;-45
2023/10/31 02:09:07;;;;;;;16.05;9.45;;;;;;;14.24;100.00;99175.91;5090807;28;20044;-45
2023/10/31 02:11:35;;;;;;;17.73;9.80;;;;;;;14.27;100.00;99172.09;5091037;28;20089;-45
2023/10/31 02:14:04;;;;;;;17.35;9.50;;;;;;;14.28;100.00;99171.09;5090571;28;20457;-44
2023/10/31 02:16:34;;;;;;;16.92;9.82;;;;;;;14.30;100.00;99159.28;5090890;28;20101;-44
2023/10/31 02:19:04;;;;;;;14.15;9.10;;;;;;;14.14;100.00;99167.03;5090694;28;20048;-46
2023/10/31 02:21:33;;;;;;;16.35;9.07;;;;;;;14.07;100.00;99151.63;5090901;28;20040;-47
2023/10/31 02:24:04;;;;;;;18.00;9.70;;;;;;;14.02;100.00;99162.78;5090664;28;20056;-45
2023/10/31 02:26:33;;;;;;;19.02;9.38;;;;;;;13.83;100.00;99152.06;5090757;28;20048;-44
2023/10/31 02:29:03;;;;;;;16.92;9.88;;;;;;;13.84;100.00;99148.38;5090804;28;20044;-45
2023/10/31 02:31:31;;;;;;;15.43;9.52;;;;;;;13.87;100.00;99140.91;5090882;28;20052;-44
2023/10/31 02:33:59;;;;;;;15.60;9.82;;;;;;;13.93;100.00;99145.72;5090222;28;20481;-44
2023/10/31 02:36:28;;;;;;;17.50;10.10;;;;;;;13.89;100.00;99154.16;5090275;28;20397;-45
2023/10/31 02:38:56;;;;;;;17.60;10.00;;;;;;;13.98;100.00;99159.53;5093419;28;20385;-45
2023/10/31 02:41:26;;;;;;;16.85;10.77;;;;;;;14.10;100.00;99149.53;5093701;28;20048;-46
2023/10/31 02:43:55;;;;;;;19.60;10.85;;;;;;;14.01;100.00;99153.91;5093693;28;20056;-45
2023/10/31 02:46:23;;;;;;;17.88;10.52;;;;;;;14.10;100.00;99140.66;5093855;28;20048;-46
2023/10/31 02:48:52;;;;;;;17.50;11.50;;;;;;;14.02;100.00;99144.88;5093761;28;20048;-46
2023/10/31 02:51:20;;;;;;;17.42;10.70;;;;;;;13.95;100.00;99133.00;5093622;28;20048;-45
2023/10/31 02:53:48;;;;;;;18.83;10.90;;;;;;;13.95;100.00;99143.72;5093549;28;20106;-46
2023/10/31 02:56:16;;;;;;;16.35;10.65;;;;;;;13.96;100.00;99128.50;5093872;28;20054;-46
2023/10/31 02:58:46;;;;;;;17.90;10.65;;;;;;;13.84;100.00;99132.31;5093477;28;20037;-46
2023/10/31 03:01:15;;;;;;;17.10;10.45;;;;;;;13.92;100.00;99132.47;5093577;28;20059;-45
2023/10/31 03:03:43;;;;;;;16.00;10.23;;;;;;;14.03;100.00;99148.41;5093775;28;20052;-44
2023/10/31 03:06:12;;;;;;;17.88;10.73;;;;;;;14.04;100.00;99153.63;5093343;28;20044;-44
2023/10/31 03:08:40;;;;;;;17.38;10.13;;;;;;;14.10;100.00;99146.00;5093512;28;20490;-46
2023/10/31 03:11:09;;;;;;;17.23;10.73;;;;;;;14.11;100.00;99137.81;5093704;28;20048;-44
2023/10/31 03:13:37;;;;;;;14.98;9.15;;;;;;;14.22;100.00;99147.56;5093550;28;20056;-45
2023/10/31 03:16:07;;;;;;;16.75;10.07;;;;;;;14.19;100.00;99150.53;5093475;28;20052;-45
2023/10/31 03:18:35;;;;;;;15.88;9.65;;;;;;;14.18;100.00;99149.66;5093159;28;20058;-44
2023/10/31 03:21:04;;;;;;;19.85;10.07;;;;;;;14.17;100.00;99153.31;5093159;28;20536;-45
2023/10/31 03:23:32;;;;;;;16.67;10.18;;;;;;;14.11;100.00;99158.44;5093235;28;20059;-45
2023/10/31 03:26:01;;;;;;;17.88;10.88;;;;;;;14.14;100.00;99148.25;5093327;28;20551;-45
2023/10/31 03:28:29;;;;;;;18.23;10.15;;;;;;;14.03;100.00;99143.88;5093219;28;20052;-48
2023/10/31 03:30:57;;;;;;;18.10;10.00;;;;;;;14.03;100.00;99135.00;5093040;28;20051;-44
2023/10/31 03:33:27;;;;;;;19.98;10.30;;;;;;;14.04;100.00;99147.41;5092892;28;20089;-46
2023/10/31 03:35:56;;;;;;;18.20;9.85;;;;;;;14.13;100.00;99161.81;5093082;28;20048;-45
2023/10/31 03:38:24;;;;;;;17.65;10.45;;;;;;;14.13;100.00;99170.69;5093017;28;20052;-46
2023/10/31 03:40:52;;;;;;;18.95;9.95;;;;;;;14.09;100.00;99174.66;5092820;28;20048;-47
2023/10/31 03:43:21;;;;;;;14.25;9.63;;;;;;;14.10;100.00;99188.91;5092857;28;20131;-46
2023/10/31 03:45:50;;;;;;;14.52;9.57;;;;;;;14.10;100.00;99191.59;5092778;28;20047;-44
2023/10/31 03:48:18;;;;;;;20.55;10.23;;;;;;;14.19;100.00;99183.56;5092523;28;20060;-46
2023/10/31 03:50:49;;;;;;;17.55;10.07;;;;;;;14.20;100.00;99206.69;5092800;28;20048;-45
2023/10/31 03:53:18;;;;;;;16.67;10.40;;;;;;;14.16;100.00;99202.59;5092662;28;20052;-44
2023/10/31 03:55:46;;;;;;;16.30;10.40;;;;;;;14.06;100.00;99204.41;5092490;28;20086;-46
2023/10/31 03:58:14;;;;;;;17.67;10.80;;;;;;;13.82;100.00;99174.50;5092608;28;20044;-45
2023/10/31 04:00:42;;;;;;;20.08;11.02;;;;;;;13.91;100.00;99179.03;5092347;28;20040;-45
2023/10/31 04:03:10;;;;;;;19.20;10.50;;;;;;;13.93;100.00;99177.88;5092685;28;20355;-46
2023/10/31 04:05:38;;;;;;;17.55;9.52;;;;;;;14.03;100.00;99184.09;5092407;28;20047;-45
2023/10/31 04:08:08;;;;;;;18.17;10.15;;;;;;;13.97;100.00;99183.81;5092315;28;20052;-45
2023/10/31 04:10:36;;;;;;;13.45;8.65;;;;;;;13.95;100.00;99196.50;5092334;28;20048;-47
2023/10/31 04:13:05;;;;;;;15.40;9.50;;;;;;;13.91;100.00;99168.31;5092159;28;20515;-47
2023/10/31 04:15:34;;;;;;;16.38;9.50;;;;;;;13.82;100.00;99163.78;5092118;28;20075;-46
2023/10/31 04:18:03;;;;;;;13.52;8.45;;;;;;;13.88;100.00;99161.34;5092476;28;20048;-45
2023/10/31 04:20:31;;;;;;;14.95;8.82;;;;;;;13.85;100.00;99152.75;5092329;28;20048;-46
2023/10/31 04:23:00;;;;;;;13.45;8.15;;;;;;;13.99;100.00;99150.53;5092253;28;20139;-47
2023/10/31 04:25:30;;;;;;;13.70;7.95;;;;;;;14.07;100.00;99155.16;5092266;28;20505;-46
2023/10/31 04:27:58;;;;;;;15.25;8.77;;;;;;;13.96;100.00;99147.25;5091937;28;20058;-46
2023/10/31 04:30:27;;;;;;;15.65;8.80;;;;;;;13.88;100.00;99142.59;5091802;28;20048;-47
2023/10/31 04:32:56;;;;;;;13.85;7.72;;;;;;;13.93;100.00;99132.31;5091917;28;20464;-45
2023/10/31 04:35:24;;;;;;;11.75;7.28;;;;;;;13.97;100.00;99122.13;5091753;28;20066;-47
2023/10/31 04:37:53;;;;;;;13.35;7.45;;;;;;;14.02;100.00;99111.84;5091778;28;20048;-45
2023/10/31 04:40:21;;;;;;;13.43;7.82;;;;;;;14.11;100.00;99113.69;5091716;28;20408;-45
2023/10/31 04:42:50;;;;;;;14.85;7.95;;;;;;;14.14;100.00;99116.06;5091844;28;20119;-45
2023/10/31 04:45:19;;;;;;;13.73;7.53;;;;;;;14.20;100.00;99123.56;5091772;28;20071;-47
2023/10/31 04:47:47;;;;;;;13.48;7.43;;;;;;;14.22;100.00;99113.53;5091476;28;20473;-45
2023/10/31 04:50:16;;;;;;;12.75;8.07;;;;;;;14.28;100.00;99102.25;5091412;28;20044;-46
2023/10/31 04:52:44;;;;;;;14.75;8.45;;;;;;;14.32;100.00;99092.91;5091602;28;20079;-45
2023/10/31 04:55:12;;;;;;;14.68;8.02;;;;;;;14.36;100.00;99100.66;5091581;28;20130;-46
2023/10/31 04:57:45;;;;;;;12.23;8.02;;;;;;;14.39;100.00;99093.19;5091732;28;20194;-45
2023/10/31 05:00:16;;;;;;;13.75;8.02;;;;;;;14.41;100.00;99093.88;5091200;28;20248;-46
2023/10/31 05:02:44;;;;;;;15.48;8.23;;;;;;;14.39;100.00;99084.28;5091474;28;20055;-45
2023/10/31 05:05:13;;;;;;;13.20;8.75;;;;;;;14.37;100.00;99088.94;5091415;28;20052;-46
2023/10/31 05:07:41;;;;;;;13.57;7.65;;;;;;;14.32;100.00;99076.81;5091297;28;20482;-46
2023/10/31 05:10:10;;;;;;;15.40;8.15;;;;;;;14.33;100.00;99072.28;5091467;28;20052;-46
2023/10/31 05:12:38;;;;;;;16.38;7.97;;;;;;;14.27;100.00;99071.00;5091275;28;20079;-45
2023/10/31 05:15:08;;;;;;;11.95;7.85;;;;;;;14.33;100.00;99067.78;5091172;28;20117;-46
2023/10/31 05:17:38;;;;;;;12.05;7.47;;;;;;;14.32;100.00;99060.72;5090896;28;20463;-45
2023/10/31 05:20:08;;;;;;;15.77;8.38;;;;;;;14.35;100.00;99054.22;5090899;28;20056;-46
2023/10/31 05:22:37;;;;;;;13.27;8.00;;;;;;;14.34;100.00;99055.19;5090936;28;20059;-46
2023/10/31 05:25:06;;;;;;;14.13;8.15;;;;;;;14.29;100.00;99055.66;5090959;28;20119;-46
2023/10/31 05:27:34;;;;;;;13.50;8.20;;;;;;;14.27;100.00;99059.44;5091021;28;20048;-46
2023/10/31 05:30:03;;;;;;;14.57;7.97;;;;;;;14.29;100.00;99079.78;5090921;28;20060;-46
2023/10/31 05:32:31;;;;;;;13.60;8.20;;;;;;;14.31;100.00;99096.59;5090940;28;20062;-45
2023/10/31 05:35:02;;;;;;;15.98;8.32;;;;;;;14.24;100.00;99105.34;5090575;28;20485;-46
2023/10/31 05:37:30;;;;;;;15.98;8.48;;;;;;;14.25;100.00;99118.59;5090888;28;20135;-45
2023/10/31 05:39:59;;;;;;;13.60;8.30;;;;;;;14.29;100.00;99146.84;5091089;28;20048;-44
2023/10/31 05:42:27;;;;;;;14.13;8.45;;;;;;;14.33;100.00;99142.88;5090929;28;20105;-46
2023/10/31 05:44:56;;;;;;;12.77;7.93;;;;;;;14.39;100.00;99135.25;5090965;28;20048;-45
2023/10/31 05:47:25;;;;;;;14.13;7.80;;;;;;;14.30;100.00;99115.50;5090746;28;20044;-45
2023/10/31 05:49:53;;;;;;;15.70;8.32;;;;;;;14.31;100.00;99112.69;5091064;28;20048;-45
2023/10/31 05:52:23;;;;;;;12.40;7.82;;;;;;;14.28;100.00;99102.25;5090631;28;20044;-46
2023/10/31 05:54:51;;;;;;;16.85;8.50;;;;;;;14.19;100.00;99097.75;5090886;28;20063;-45
2023/10/31 05:57:19;;;;;;;14.75;8.50;;;;;;;13.99;100.00;99088.88;5090896;28;20045;-45
2023/10/31 05:59:48;;;;;;;13.98;7.50;;;;;;;13.89;100.00;99096.03;5090635;28;20050;-45
2023/10/31 06:02:16;;;;;;;14.05;7.82;;;;;;;13.95;100.00;99087.44;5090889;28;20150;-46
2023/10/31 06:04:45;;;;;;;12.30;7.90;;;;;;;14.03;100.00;99098.31;5090978;28;20048;-45
2023/10/31 06:07:13;;;;;;;11.07;6.95;;;;;;;14.08;100.00;99089.81;5090811;28;20056;-45
2023/10/31 06:09:43;;;;;;;12.95;7.03;;;;;;;14.16;100.00;99076.53;5090925;28;20109;-45
2023/10/31 06:12:11;;;;;;;12.43;6.93;;;;;;;14.17;100.00;99055.94;5090987;28;20052;-46
2023/10/31 06:14:39;;;;;;;12.55;7.40;;;;;;;14.18;100.00;99055.78;5094339;28;20067;-46
2023/10/31 06:17:08;;;;;;;12.07;6.85;;;;;;;14.24;100.00;99057.06;5094338;28;20054;-45
2023/10/31 06:19:37;;;;;;;17.23;7.63;;;;;;;14.24;100.00;99082.03;5094362;28;20054;-45
2023/10/31 06:22:05;;;;;;;14.60;8.77;;;;;;;14.27;100.00;99110.41;5093974;28;20087;-46
2023/10/31 06:24:34;;;;;;;16.50;8.88;;;;;;;14.11;100.00;99104.81;5094291;28;20055;-45
2023/10/31 06:27:04;;;;;;;18.50;9.93;;;;;;;13.88;100.00;99093.50;5093638;28;20634;-44
2023/10/31 06:29:32;;;;;;;16.85;10.25;;;;;;;13.93;100.00;99096.63;5093461;28;20598;-44
2023/10/31 06:32:03;;;;;;;16.73;10.30;;;;;;;13.98;100.00;99088.97;5093324;28;20040;-45
2023/10/31 06:34:31;;;;;;;15.95;9.75;;;;;;;14.02;100.00;99079.69;5093710;28;20040;-46
2023/10/31 06:37:00;;;;;;;14.77;10.32;;;;;;;14.08;100.00;99094.34;5093294;28;20064;-45
2023/10/31 06:39:28;;;;;;;18.17;9.82;;;;;;;14.18;100.00;99089.81;5091466;28;20040;-45
2023/10/31 06:41:56;;;;;;;16.92;10.73;;;;;;;14.21;100.00;99090.38;5093585;28;20144;-45
2023/10/31 06:44:29;;;;;;;16.02;10.02;;;;;;;14.15;100.00;99085.59;5090476;28;20167;-46
2023/10/31 06:46:58;;;;;;;18.20;9.70;;;;;;;14.22;100.00;99075.97;5093268;28;20044;-44
2023/10/31 06:49:26;;;;;;;17.15;9.43;;;;;;;14.25;100.00;99069.47;5093092;28;20048;-45
2023/10/31 06:51:54;;;;;;;17.02;9.85;;;;;;;14.15;100.00;99092.78;5093133;28;20173;-45
2023/10/31 06:54:23;;;;;;;18.60;10.23;;;;;;;14.20;100.00;99091.38;5093111;28;20048;-45
2023/10/31 06:56:51;;;;;;;18.70;10.48;;;;;;;14.32;100.00;99092.06;5093605;28;20044;-47
2023/10/31 06:59:19;;;;;;;19.13;10.43;;;;;;;14.44;100.00;99087.38;5093555;28;20070;-46
2023/10/31 07:01:49;;;;;;;16.55;9.77;;;;;;;14.49;100.00;99094.03;5093419;28;20048;-46
2023/10/31 07:04:17;;;;;;;16.52;10.18;;;;;;;14.52;100.00;99106.31;5093597;28;20481;-47
2023/10/31 07:06:45;;;;;;;17.42;10.95;;;;;;;14.49;100.00;99120.88;5093375;28;20044;-44
2023/10/31 07:09:14;;;;;;;15.65;9.85;;;;;;;14.52;100.00;99092.91;5093575;28;20048;-47
2023/10/31 07:11:45;;;;;;;16.25;9.85;;;;;;;14.46;100.00;99090.78;5093695;28;20052;-45
2023/10/31 07:14:13;;;;;;;16.48;9.52;;;;;;;14.49;100.00;99074.41;5092973;28;20493;-46
2023/10/31 07:16:44;;;;;;;18.75;10.57;;;;;;;14.51;100.00;99069.75;5093348;28;20070;-44
2023/10/31 07:19:14;;;;;;;15.88;10.18;;;;;;;14.53;100.00;99082.00;5093635;28;20050;-45
2023/10/31 07:21:42;;;;;;;16.45;10.75;;;;;;;14.50;100.00;99078.78;5093599;28;20135;-46
2023/10/31 07:24:11;;;;;;;16.25;9.82;;;;;;;14.59;100.00;99072.53;5092723;28;20382;-45
2023/10/31 07:26:39;;;;;;;19.58;10.43;;;;;;;14.63;100.00;99078.44;5093025;28;20527;-45
2023/10/31 07:29:08;;;;;;;19.52;10.77;;;;;;;14.64;100.00;99070.25;5093384;28;20076;-45
2023/10/31 07:31:38;;;;;;;18.55;10.27;;;;;;;14.69;100.00;99078.72;5092889;28;20052;-46
2023/10/31 07:34:07;;;;;;;15.13;9.43;;;;;;;14.77;100.00;99076.16;5093446;28;20386;-51
2023/10/31 07:36:36;;;;;;;16.13;9.18;;;;;;;14.89;100.00;99083.03;5093221;28;20193;-45
2023/10/31 07:39:05;;;;;;;14.43;8.55;;;;;;;14.97;100.00;99081.44;5093342;28;20044;-45
2023/10/31 07:41:33;;;;;;;14.10;8.27;;;;;;;15.01;100.00;99066.72;5093237;28;20485;-46
2023/10/31 07:44:01;;;;;;;16.48;8.70;;;;;;;15.06;100.00;99067.13;5093136;28;20075;-45
2023/10/31 07:46:29;;;;;;;12.48;8.38;;;;;;;15.08;100.00;99067.81;5092073;28;20040;-50
2023/10/31 07:48:58;;;;;;;11.57;7.45;;;;;;;15.05;100.00;99074.31;5092417;28;20481;-46
2023/10/31 07:51:26;;;;;;;11.00;7.07;;;;;;;15.09;100.00;99078.41;5093025;28;20130;-45
2023/10/31 07:53:57;;;;;;;10.88;6.90;;;;;;;15.18;100.00;99079.34;5092623;28;20052;-47
2023/10/31 07:56:26;;;;;;;10.63;6.55;;;;;;;15.20;100.00;99065.75;5092597;28;20135;-45
2023/10/31 07:58:55;;;;;;;14.60;7.07;;;;;;;15.24;100.00;99067.97;5091233;28;20055;-45
2023/10/31 08:01:24;;;;;;;11.85;6.45;;;;;;;15.48;100.00;99061.19;5090326;28;20055;-47
2023/10/31 08:03:52;;;;;;;12.70;6.60;;;;;;;15.62;100.00;99050.78;5090990;28;20043;-47
2023/10/31 08:06:21;;;;;;;13.43;6.22;;;;;;;15.63;100.00;99057.88;5091411;28;20044;-45
2023/10/31 08:08:49;;;;;;;13.80;6.47;;;;;;;15.68;100.00;99054.72;5090659;28;20055;-46
2023/10/31 08:11:19;;;;;;;10.60;5.50;;;;;;;15.72;100.00;99056.09;5091584;28;20481;-45
2023/10/31 08:13:47;;;;;;;10.82;5.60;;;;;;;15.98;100.00;99056.16;5091592;28;20044;-46
2023/10/31 08:16:19;;;;;;;10.52;5.07;;;;;;;16.17;100.00;99071.25;5091908;28;20123;-45
2023/10/31 08:18:47;;;;;;;12.55;5.30;;;;;;;16.34;100.00;99061.47;5091868;28;20135;-46
2023/10/31 08:21:15;;;;;;;12.52;4.88;;;;;;;16.27;100.00;99063.94;5091998;28;20059;-45
2023/10/31 08:23:46;;;;;;;11.80;4.90;;;;;;;16.25;100.00;99071.31;5091551;28;20509;-46
2023/10/31 08:26:14;;;;;;;11.90;4.93;;;;;;;16.24;100.00;99056.19;5091592;28;20515;-46
2023/10/31 08:28:44;;;;;;;7.18;4.35;;;;;;;16.29;100.00;99061.94;5091640;28;20044;-45
2023/10/31 08:31:14;;;;;;;7.90;4.40;;;;;;;16.24;100.00;99056.19;5091616;28;20079;-46
2023/10/31 08:33:42;;;;;;;9.52;4.57;;;;;;;16.25;100.00;99061.41;5091654;28;20082;-45
2023/10/31 08:36:10;;;;;;;11.50;4.50;;;;;;;16.26;100.00;99067.63;5090814;28;20044;-46
2023/10/31 08:38:39;;;;;;;9.38;4.70;;;;;;;16.35;100.00;99063.16;5091467;28;20048;-45
2023/10/31 08:41:08;;;;;;;9.13;4.28;;;;;;;16.39;100.00;99049.22;5091763;28;20197;-46
2023/10/31 08:43:36;;;;;;;9.40;4.35;;;;;;;16.43;100.00;99047.91;5091528;28;20481;-46
2023/10/31 08:46:06;;;;;;;8.25;4.05;;;;;;;16.50;100.00;99035.50;5091550;28;20047;-47
2023/10/31 08:48:34;;;;;;;7.93;3.88;;;;;;;16.60;100.00;99032.72;5091647;28;20135;-47
2023/10/31 08:51:03;;;;;;;9.27;4.22;;;;;;;16.61;100.00;99031.69;5091718;28;20048;-48
2023/10/31 08:53:31;;;;;;;6.97;4.03;;;;;;;16.73;100.00;99045.75;5091462;28;20409;-47
2023/10/31 08:55:59;;;;;;;10.30;4.13;;;;;;;16.82;100.00;99031.31;5091594;28;20185;-46
2023/10/31 08:58:29;;;;;;;6.57;4.00;;;;;;;16.91;100.00;99038.44;5091605;28;20457;-46
2023/10/31 09:00:57;;;;;;;22.35;5.47;;;;;;;16.98;100.00;99042.16;5091328;28;20543;-47
2023/10/31 09:03:27;;;;;;;50.60;8.93;;;;;;;17.02;100.00;99030.06;5091343;28;20461;-46
2023/10/31 09:05:55;;;;;;;34.40;6.45;;;;;;;17.13;100.00;99027.06;5091244;28;20048;-46
2023/10/31 09:08:23;;;;;;;38.47;7.05;;;;;;;17.15;100.00;99018.81;5091294;28;20561;-46
2023/10/31 09:10:52;;;;;;;35.85;6.85;;;;;;;17.21;100.00;99028.94;5091444;28;20048;-45
2023/10/31 09:13:20;;;;;;;19.58;5.05;;;;;;;17.27;100.00;99011.25;5091083;28;20067;-46
2023/10/31 09:15:49;;;;;;;14.77;4.40;;;;;;;17.29;100.00;99020.03;5090989;28;20076;-45
2023/10/31 09:18:18;;;;;;;9.73;3.45;;;;;;;17.36;100.00;99013.81;5090889;28;20080;-46
2023/10/31 09:20:48;;;;;;;6.07;3.47;;;;;;;17.39;100.00;99005.41;5091086;28;20447;-46
2023/10/31 09:23:17;;;;;;;7.78;3.53;;;;;;;17.45;100.00;99001.19;5090670;28;20516;-46
2023/10/31 09:25:45;;;;;;;8.60;3.38;;;;;;;17.48;100.00;98990.09;5090745;28;20106;-45
2023/10/31 09:28:13;;;;;;;9.60;3.67;;;;;;;17.52;100.00;99002.22;5090766;28;20048;-46
2023/10/31 09:30:41;;;;;;;8.55;3.33;;;;;;;17.49;100.00;98999.03;5090838;28;20093;-46
2023/10/31 09:33:13;;;;;;;7.95;3.22;;;;;;;17.52;100.00;98988.75;5090676;28;20044;-46
2023/10/31 09:35:42;;;;;;;7.63;3.45;;;;;;;17.52;100.00;98983.34;5090574;28;20063;-47
2023/10/31 09:38:11;;;;;;;9.15;3.55;;;;;;;17.50;100.00;98968.34;5090760;28;20449;-46
2023/10/31 09:40:40;;;;;;;6.47;2.78;;;;;;;17.53;100.00;98970.72;5090724;28;20056;-45
2023/10/31 09:43:08;;;;;;;9.27;3.45;;;;;;;17.62;100.00;98962.44;5090592;28;20087;-45
2023/10/31 09:45:37;;;;;;;8.77;3.22;;;;;;;17.60;100.00;98975.25;5090386;28;20048;-46
2023/10/31 09:48:06;;;;;;;14.00;3.45;;;;;;;17.57;100.00;98983.69;5094467;28;20192;-47
2023/10/31 09:50:35;;;;;;;6.93;2.90;;;;;;;17.64;100.00;98973.91;5094769;28;20127;-48
2023/10/31 09:53:06;;;;;;;10.77;3.03;;;;;;;17.72;100.00;98978.50;5094482;28;20051;-45
2023/10/31 09:55:36;;;;;;;8.10;3.28;;;;;;;17.76;100.00;98971.78;5094659;28;20147;-47
2023/10/31 09:58:05;;;;;;;7.78;2.95;;;;;;;17.87;100.00;98962.50;5094203;28;20131;-46
2023/10/31 10:00:33;;;;;;;8.50;3.03;;;;;;;17.96;100.00;98951.53;5094501;28;20131;-46
2023/10/31 10:03:01;;;;;;;9.65;2.78;;;;;;;18.06;100.00;98945.94;5094172;28;20048;-46
2023/10/31 10:05:32;;;;;;;6.82;3.00;;;;;;;18.11;100.00;98934.63;5094377;28;20139;-46
2023/10/31 10:08:00;;;;;;;7.88;3.05;;;;;;;18.18;100.00;98928.38;5094166;28;20047;-46
2023/10/31 10:10:29;;;;;;;6.60;3.33;;;;;;;18.15;100.00;98909.00;5094231;28;20051;-46
2023/10/31 10:13:02;;;;;;;8.98;3.17;;;;;;;18.22;100.00;98894.59;5094058;28;20114;-47
2023/10/31 10:15:30;;;;;;;9.25;3.10;;;;;;;18.24;100.00;98902.56;5094079;28;20465;-48
2023/10/31 10:18:01;;;;;;;9.02;2.85;;;;;;;18.23;100.00;98885.50;5094106;28;20052;-45
2023/10/31 10:20:29;;;;;;;15.65;3.50;;;;;;;18.29;100.00;98870.47;5094065;28;20094;-47
2023/10/31 10:23:04;;;;;;;11.15;2.95;;;;;;;18.32;100.00;98883.59;5093745;28;20438;-47
2023/10/31 10:25:33;;;;;;;10.52;3.17;;;;;;;18.33;99.98;98874.50;5094278;28;20040;-47
2023/10/31 10:28:13;;;;;;;6.55;2.70;;;;;;;18.39;98.22;98857.59;5094315;28;20048;-47
2023/10/31 10:30:41;;;;;;;9.45;3.03;;;;;;;18.41;100.00;98852.84;5094291;28;20093;-46
2023/10/31 10:33:09;;;;;;;8.20;3.00;;;;;;;18.44;97.14;98849.00;5094019;28;20067;-45
2023/10/31 10:35:40;;;;;;;6.22;2.45;;;;;;;18.55;97.54;98841.31;5094007;28;20043;-48
2023/10/31 10:38:13;;;;;;;7.68;2.72;;;;;;;18.65;97.30;98830.34;5093805;28;20056;-47
2023/10/31 10:40:44;;;;;;;8.73;2.75;;;;;;;18.75;97.16;98820.13;5094080;28;20130;-47
2023/10/31 10:43:22;;;;;;;10.02;2.60;;;;;;;18.84;98.19;98824.47;5094040;28;20044;-46
2023/10/31 10:45:56;;;;;;;9.00;3.20;;;;;;;18.87;93.85;98823.25;5093765;28;20543;-47
2023/10/31 10:48:26;;;;;;;6.20;2.60;;;;;;;18.92;94.03;98822.75;5093336;28;20182;-46
2023/10/31 10:51:01;;;;;;;7.65;2.80;;;;;;;19.00;92.68;98822.66;5093627;28;20055;-46
2023/10/31 10:53:35;;;;;;;6.55;2.63;;;;;;;18.93;95.82;98817.16;5093544;28;20055;-47
2023/10/31 10:56:13;;;;;;;7.18;2.60;;;;;;;18.87;94.51;98807.88;5093343;28;20044;-47
2023/10/31 10:58:52;;;;;;;7.20;2.50;;;;;;;18.93;90.98;98806.34;5092226;28;20132;-46
2023/10/31 11:01:21;;;;;;;5.82;2.72;;;;;;;18.97;93.44;98796.84;5093234;28;20044;-46
2023/10/31 11:03:51;;;;;;;6.28;2.55;;;;;;;18.97;92.18;98787.91;5093130;28;20058;-46
2023/10/31 11:06:20;;;;;;;9.15;2.67;;;;;;;19.01;91.64;98776.56;5093290;28;20157;-44
2023/10/31 11:08:48;;;;;;;8.05;2.53;;;;;;;19.04;89.69;98772.66;5093240;28;20075;-45
2023/10/31 11:11:17;;;;;;;5.40;2.60;;;;;;;19.12;88.94;98759.06;5093264;28;20054;-45
2023/10/31 11:13:47;;;;;;;8.13;2.58;;;;;;;19.17;87.89;98753.94;5093446;28;20110;-46
2023/10/31 11:16:24;;;;;;;6.68;2.65;;;;;;;19.21;88.45;98739.06;5093150;28;20048;-46
2023/10/31 11:18:53;;;;;;;6.20;2.40;;;;;;;19.22;84.06;98738.03;5092948;28;20127;-46
2023/10/31 11:21:23;;;;;;;6.18;2.25;;;;;;;19.24;83.91;98745.94;5093021;28;20048;-50
2023/10/31 11:23:59;;;;;;;6.45;2.25;;;;;;;19.20;85.59;98742.75;5092546;28;20134;-45
2023/10/31 11:26:27;;;;;;;5.35;2.20;;;;;;;19.11;87.32;98742.00;5093033;28;20094;-47